Time;durP1;ratioP1;P1;durP2;ratioP2;P2;SDS_P1;SDS_P2;PMS_P1;PMS_P2;Temp;Humidity;BMP_temperature;BMP_pressure;BME280_temperature;BME280_humidity;BME280_pressure;Samples;Min_cycle;Max_cycle;Signal;HPM_P1;HPM_P2
2023/12/07 00:00:08;;;;;;;10.90;5.25;;;;;;;9.33;76.51;100682.03;10423256;28;96747;-79
2023/12/07 00:05:14;;;;;;;9.93;5.25;;;;;;;9.34;77.33;100678.50;10422398;28;96828;-79
2023/12/07 00:10:18;;;;;;;10.43;5.28;;;;;;;9.25;77.16;100682.22;10404151;27;96726;-79
2023/12/07 00:15:23;;;;;;;7.28;4.85;;;;;;;9.28;77.29;100669.00;10440474;27;97604;-79
2023/12/07 00:20:28;;;;;;;;;;;;;;;9.31;76.64;100668.06;10465021;27;97347;-79
2023/12/07 00:25:31;;;;;;;8.48;4.82;;;;;;;9.29;77.84;100648.88;10440828;27;96912;-79
2023/12/07 00:30:35;;;;;;;11.45;5.22;;;;;;;9.29;76.84;100646.25;10379921;28;97335;-79
2023/12/07 00:35:40;;;;;;;8.48;5.05;;;;;;;9.35;77.03;100661.81;10379428;28;97706;-79
2023/12/07 00:40:44;;;;;;;8.63;4.90;;;;;;;9.40;76.50;100670.47;10379173;28;97028;-79
2023/12/07 00:45:47;;;;;;;10.02;5.43;;;;;;;9.36;76.84;100667.06;10380503;28;96640;-79
2023/12/07 00:50:52;;;;;;;11.23;5.50;;;;;;;9.37;76.26;100708.16;10379882;28;96918;-79
2023/12/07 00:55:56;;;;;;;12.65;6.50;;;;;;;9.41;76.94;100711.56;10379780;28;96648;-79
2023/12/07 01:00:59;;;;;;;8.00;4.80;;;;;;;9.39;77.06;100721.25;10380166;28;96816;-79
2023/12/07 01:06:04;;;;;;;9.00;5.00;;;;;;;9.49;77.11;100720.94;10402422;27;96859;-79
2023/12/07 01:11:08;;;;;;;11.55;5.28;;;;;;;9.49;78.16;100705.19;10439305;27;96604;-79
2023/12/07 01:16:12;;;;;;;10.18;4.85;;;;;;;9.52;78.37;100691.97;10379766;28;96587;-79
2023/12/07 01:21:17;;;;;;;10.48;5.90;;;;;;;9.49;77.80;100680.69;10378758;28;96685;-79
2023/12/07 01:26:20;;;;;;;9.38;5.32;;;;;;;9.35;79.39;100667.06;10378739;28;96988;-79
2023/12/07 01:31:24;;;;;;;9.68;5.25;;;;;;;9.38;79.64;100659.13;10377549;28;97121;-79
2023/12/07 01:36:29;;;;;;;9.93;5.50;;;;;;;9.18;80.67;100658.78;10378313;28;96711;-79
2023/12/07 01:41:32;;;;;;;10.55;4.93;;;;;;;9.09;81.00;100629.25;10378276;28;96828;-79
2023/12/07 01:46:37;;;;;;;9.65;5.65;;;;;;;9.03;81.60;100626.78;10377818;28;97130;-79
2023/12/07 01:51:45;;;;;;;11.13;5.38;;;;;;;9.06;81.26;100623.22;10378556;28;97697;-80
2023/12/07 01:56:50;;;;;;;9.80;5.65;;;;;;;9.10;82.02;100638.00;10378355;28;97390;-81
2023/12/07 02:01:54;;;;;;;;;;;;;;;9.01;83.25;100615.50;10378041;28;97216;-79
2023/12/07 02:07:05;;;;;;;10.25;5.80;;;;;;;8.96;83.85;100616.50;10434870;27;96749;-79
2023/12/07 02:12:09;;;;;;;9.50;5.43;;;;;;;8.92;83.94;100607.00;10380989;28;97211;-79
2023/12/07 02:17:20;;;;;;;11.85;5.35;;;;;;;9.01;84.10;100631.25;10419262;28;96623;-78
2023/12/07 02:22:31;;;;;;;9.80;5.45;;;;;;;9.02;83.33;100625.06;10417430;28;96685;-79
2023/12/07 02:27:37;;;;;;;10.13;5.88;;;;;;;9.05;83.95;100624.16;10394007;28;97714;-79
2023/12/07 02:32:42;;;;;;;9.65;5.68;;;;;;;9.02;84.15;100625.06;10417827;28;96741;-79
2023/12/07 02:37:47;;;;;;;7.38;5.10;;;;;;;9.00;84.12;100616.38;10417818;28;96698;-79
2023/12/07 02:42:53;;;;;;;10.93;6.20;;;;;;;9.02;84.52;100611.06;10395526;28;97055;-79
2023/12/07 02:47:59;;;;;;;9.52;6.00;;;;;;;8.98;84.71;100618.16;10376085;28;96669;-79
2023/12/07 02:53:02;;;;;;;12.07;6.60;;;;;;;8.95;85.08;100618.25;10376190;28;97225;-79
2023/12/07 02:58:07;;;;;;;11.80;6.35;;;;;;;8.95;85.55;100592.03;10383436;28;96599;-79
2023/12/07 03:03:10;;;;;;;;;;;;;;;8.95;85.68;100599.03;10399576;27;96720;-79
2023/12/07 03:08:14;;;;;;;12.75;6.32;;;;;;;8.91;86.37;100595.63;10387693;28;97234;-79
2023/12/07 03:13:19;;;;;;;9.88;5.70;;;;;;;8.91;86.02;100594.78;10400757;27;96865;-79
2023/12/07 03:18:22;;;;;;;9.93;5.30;;;;;;;8.93;85.64;100577.25;10429698;27;97435;-79
2023/12/07 03:23:26;;;;;;;9.25;4.72;;;;;;;8.99;85.61;100561.31;10424415;28;96567;-79
2023/12/07 03:28:30;;;;;;;10.55;5.43;;;;;;;9.04;87.00;100568.16;10423949;28;96712;-79
2023/12/07 03:33:34;;;;;;;7.93;4.90;;;;;;;9.02;87.03;100548.94;10422746;28;97735;-79
2023/12/07 03:38:37;;;;;;;6.75;4.75;;;;;;;9.01;86.82;100555.13;10423466;28;96751;-79
2023/12/07 03:43:44;;;;;;;9.50;4.88;;;;;;;8.98;87.33;100546.47;10418153;28;96637;-79
2023/12/07 03:48:48;;;;;;;8.15;4.13;;;;;;;9.06;87.96;100541.84;10418204;28;96621;-79
2023/12/07 03:53:51;;;;;;;9.90;4.57;;;;;;;9.12;87.57;100533.81;10417396;28;96788;-79
2023/12/07 03:58:58;;;;;;;8.18;4.32;;;;;;;9.13;86.79;100527.66;10418101;28;96767;-79
2023/12/07 04:04:02;;;;;;;8.85;4.40;;;;;;;9.16;87.20;100538.06;10456803;27;96704;-79
2023/12/07 04:09:07;;;;;;;7.43;4.50;;;;;;;9.16;87.74;100514.41;10396712;27;96787;-79
2023/12/07 04:14:12;;;;;;;6.40;4.10;;;;;;;9.13;88.46;100501.41;10404127;28;96935;-79
2023/12/07 04:19:15;;;;;;;7.57;4.40;;;;;;;9.19;87.34;100524.00;10376993;27;96733;-79
2023/12/07 04:24:19;;;;;;;7.03;3.95;;;;;;;9.18;89.09;100517.88;10398438;28;96595;-79
2023/12/07 04:29:24;;;;;;;7.00;3.85;;;;;;;9.23;88.25;100496.72;10403161;28;97042;-79
2023/12/07 04:34:28;;;;;;;6.85;4.03;;;;;;;9.26;87.72;100505.38;10416000;28;96766;-79
2023/12/07 04:39:33;;;;;;;7.60;4.10;;;;;;;9.19;88.47;100495.94;10414039;28;96642;-79
2023/12/07 04:44:41;;;;;;;7.73;4.10;;;;;;;9.21;89.11;100485.41;10374814;28;96810;-78
2023/12/07 04:49:46;;;;;;;7.18;4.40;;;;;;;9.27;88.96;100490.50;10374779;28;96768;-79
2023/12/07 04:54:51;;;;;;;6.18;3.75;;;;;;;9.29;89.25;100465.06;10373147;28;97131;-79
2023/12/07 04:59:55;;;;;;;6.55;4.07;;;;;;;9.24;89.28;100446.84;10375343;27;97319;-79
2023/12/07 05:04:59;;;;;;;9.48;4.55;;;;;;;9.31;88.70;100443.09;10373665;28;96703;-79
2023/12/07 05:10:03;;;;;;;7.45;4.45;;;;;;;9.30;88.90;100437.88;10374046;28;96627;-79
2023/12/07 05:15:09;;;;;;;7.50;4.33;;;;;;;9.28;88.41;100455.47;10373745;27;96743;-79
2023/12/07 05:20:13;;;;;;;7.05;3.50;;;;;;;9.28;89.96;100437.94;10372966;28;97162;-79
2023/12/07 05:25:17;;;;;;;7.78;4.22;;;;;;;9.35;89.26;100446.47;10373316;28;96638;-79
2023/12/07 05:30:22;;;;;;;6.50;3.90;;;;;;;9.36;88.92;100435.06;10408061;28;97566;-78
2023/12/07 05:35:25;;;;;;;6.32;3.58;;;;;;;9.35;89.63;100428.09;10372577;28;96721;-79
2023/12/07 05:40:28;;;;;;;6.55;3.15;;;;;;;9.40;89.07;100423.59;10372756;28;96702;-79
2023/12/07 05:45:33;;;;;;;6.47;3.92;;;;;;;9.39;89.42;100427.09;10371993;28;96619;-79
2023/12/07 05:50:39;;;;;;;6.53;3.88;;;;;;;9.39;89.46;100432.34;10373228;28;97223;-79
2023/12/07 05:55:43;;;;;;;6.97;3.47;;;;;;;9.43;89.45;100418.22;10400543;27;97179;-79
2023/12/07 06:00:48;;;;;;;5.20;3.35;;;;;;;9.43;89.59;100415.59;10455963;27;96725;-79
2023/12/07 06:05:51;;;;;;;7.68;3.95;;;;;;;9.46;89.25;100405.84;10448098;22;97908;-78
2023/12/07 06:10:56;;;;;;;5.05;2.97;;;;;;;9.43;89.64;100424.34;10413612;28;97922;-79
2023/12/07 06:16:02;;;;;;;5.45;3.33;;;;;;;9.40;90.43;100411.28;10414290;27;98707;-79
2023/12/07 06:21:06;;;;;;;4.93;3.28;;;;;;;9.34;89.57;100411.50;10414127;27;97037;-79
2023/12/07 06:26:10;;;;;;;6.22;3.75;;;;;;;9.40;89.81;100420.94;10403558;28;97918;-79
2023/12/07 06:31:19;;;;;;;4.70;3.10;;;;;;;9.42;89.76;100393.72;10412088;28;96683;-79
2023/12/07 06:36:25;;;;;;;6.13;2.88;;;;;;;9.46;90.25;100400.59;10411313;27;97222;-78
2023/12/07 06:41:29;;;;;;;5.97;3.25;;;;;;;9.46;90.09;100397.09;10412994;27;96571;-79
2023/12/07 06:46:35;;;;;;;4.60;3.08;;;;;;;9.40;91.42;100394.69;10412896;28;96596;-79
2023/12/07 06:51:39;;;;;;;5.22;3.00;;;;;;;9.43;91.25;100412.97;10412188;28;96594;-79
2023/12/07 06:56:42;;;;;;;4.70;2.78;;;;;;;9.52;91.56;100408.25;10412319;28;97123;-79
2023/12/07 07:01:47;;;;;;;3.50;2.83;;;;;;;9.49;91.07;100397.00;10412528;28;96717;-79
2023/12/07 07:06:51;;;;;;;5.25;2.97;;;;;;;9.51;91.31;100403.06;10411809;28;97021;-79
2023/12/07 07:11:55;;;;;;;5.30;3.28;;;;;;;9.54;91.06;100393.31;10412906;28;97672;-79
2023/12/07 07:17:01;;;;;;;6.15;2.83;;;;;;;9.54;90.93;100393.31;10411312;28;96640;-79
2023/12/07 07:22:05;;;;;;;5.10;3.38;;;;;;;9.60;90.94;100373.88;10411704;27;96766;-79
2023/12/07 07:27:09;;;;;;;3.42;2.63;;;;;;;9.51;90.76;100361.91;10410376;28;96642;-78
2023/12/07 07:32:15;;;;;;;4.85;2.90;;;;;;;9.51;91.04;100363.66;10411119;28;96770;-79
2023/12/07 07:37:19;;;;;;;3.85;2.53;;;;;;;9.53;91.11;100367.09;10410485;28;96656;-78
2023/12/07 07:42:23;;;;;;;4.50;2.92;;;;;;;9.52;91.30;100375.91;10414723;27;97024;-79
2023/12/07 07:47:29;;;;;;;4.78;2.60;;;;;;;9.51;91.82;100358.41;10417936;28;96662;-82
2023/12/07 07:52:35;;;;;;;4.38;2.97;;;;;;;9.47;92.52;100373.41;10418225;28;96665;-81
2023/12/07 07:57:39;;;;;;;4.25;2.08;;;;;;;9.47;92.25;100367.28;10424479;27;96637;-81
2023/12/07 08:02:47;;;;;;;3.90;2.83;;;;;;;9.49;92.18;100363.72;10427576;27;97061;-81
2023/12/07 08:07:50;;;;;;;3.97;2.88;;;;;;;9.54;92.30;100350.41;10417576;28;97511;-81
2023/12/07 08:12:54;;;;;;;5.65;3.33;;;;;;;9.60;92.68;100340.59;10417462;28;96581;-82
2023/12/07 08:17:59;;;;;;;5.25;3.33;;;;;;;9.51;93.04;100335.63;10416295;28;97197;-79
2023/12/07 08:23:11;;;;;;;4.32;2.60;;;;;;;9.48;93.46;100334.88;10417123;28;97443;-79
2023/12/07 08:28:14;;;;;;;4.53;2.72;;;;;;;9.47;93.74;100343.66;10416896;28;96647;-79
2023/12/07 08:33:19;;;;;;;4.72;3.13;;;;;;;9.53;93.94;100348.72;10417016;28;97039;-78
2023/12/07 08:38:24;;;;;;;4.53;2.70;;;;;;;9.56;93.72;100359.09;10416122;28;96685;-78
2023/12/07 08:43:30;;;;;;;4.45;3.00;;;;;;;9.53;93.44;100359.22;10416323;28;96674;-80
2023/12/07 08:48:38;;;;;;;4.82;3.70;;;;;;;9.53;94.44;100353.97;10416574;28;97013;-81
2023/12/07 08:53:46;;;;;;;5.25;2.90;;;;;;;9.50;94.16;100364.59;10416063;27;96949;-81
2023/12/07 08:58:53;;;;;;;5.05;2.90;;;;;;;9.48;94.64;100348.88;10415921;27;96692;-81
2023/12/07 09:04:00;;;;;;;6.30;2.92;;;;;;;9.52;95.10;100347.84;10415909;28;96675;-79
2023/12/07 09:09:07;;;;;;;5.35;2.90;;;;;;;9.50;94.66;100333.91;10414525;28;96649;-79
2023/12/07 09:14:12;;;;;;;5.63;3.20;;;;;;;9.56;94.47;100330.22;10416552;27;97269;-79
2023/12/07 09:19:17;;;;;;;4.13;2.35;;;;;;;9.59;94.70;100327.50;10415326;28;97056;-79
2023/12/07 09:24:21;;;;;;;5.70;3.05;;;;;;;9.61;94.84;100342.28;10415175;27;96623;-79
2023/12/07 09:29:24;;;;;;;5.38;2.85;;;;;;;9.63;94.91;100327.34;10415191;28;97116;-79
2023/12/07 09:34:29;;;;;;;4.78;2.90;;;;;;;9.62;95.66;100330.00;10414448;28;96775;-79
2023/12/07 09:39:34;;;;;;;5.35;2.92;;;;;;;9.62;95.33;100337.91;10414368;28;97489;-79
2023/12/07 09:44:38;;;;;;;5.20;3.53;;;;;;;9.62;96.50;100338.75;10415334;28;97039;-79
2023/12/07 09:49:43;;;;;;;5.80;3.10;;;;;;;9.57;96.22;100330.16;10414220;28;96749;-79
2023/12/07 09:54:47;;;;;;;4.53;2.95;;;;;;;9.65;96.91;100328.16;10438075;27;96707;-79
2023/12/07 09:59:50;;;;;;;6.43;3.58;;;;;;;9.65;97.31;100332.53;10446396;27;97350;-79
2023/12/07 10:05:07;;;;;;;4.40;2.97;;;;;;;9.67;97.84;100321.06;10413011;27;97069;-79
2023/12/07 10:10:13;;;;;;;6.20;4.00;;;;;;;9.70;97.42;100326.22;10413894;28;97404;-80
2023/12/07 10:15:22;;;;;;;9.80;4.88;;;;;;;9.69;97.37;100315.75;10413813;28;96998;-80
2023/12/07 10:20:29;;;;;;;6.30;3.28;;;;;;;9.67;98.21;100321.06;10413409;28;97120;-80
2023/12/07 10:25:40;;;;;;;6.55;3.50;;;;;;;9.77;98.20;100314.56;10413781;28;96947;-80
2023/12/07 10:30:44;;;;;;;6.13;3.40;;;;;;;9.87;98.39;100299.31;10412780;28;96742;-79
2023/12/07 10:35:50;;;;;;;4.75;3.35;;;;;;;9.95;98.96;100290.25;10413199;28;96653;-79
2023/12/07 10:41:06;;;;;;;6.35;4.00;;;;;;;9.90;98.97;100294.81;10412811;28;97530;-79
2023/12/07 10:46:10;;;;;;;7.00;3.97;;;;;;;9.98;99.31;100277.00;10412905;28;97307;-79
2023/12/07 10:51:22;;;;;;;5.22;3.22;;;;;;;9.98;98.80;100260.38;10423144;27;96785;-79
2023/12/07 10:56:41;;;;;;;5.38;3.17;;;;;;;10.05;99.18;100264.50;10425966;27;96624;-79
2023/12/07 11:01:45;;;;;;;6.30;3.53;;;;;;;10.21;98.90;100252.50;10412448;27;97284;-79
2023/12/07 11:06:56;;;;;;;5.35;3.42;;;;;;;10.19;99.20;100249.88;10411744;28;96703;-79
2023/12/07 11:12:08;;;;;;;5.15;3.08;;;;;;;10.46;98.74;100247.13;10411947;27;96736;-79
2023/12/07 11:17:11;;;;;;;5.10;3.10;;;;;;;10.51;98.64;100235.50;10415122;28;96774;-79
2023/12/07 11:22:16;;;;;;;4.75;3.05;;;;;;;10.50;98.91;100228.53;10419142;28;97276;-79
2023/12/07 11:27:20;;;;;;;5.60;3.55;;;;;;;10.47;99.87;100212.00;10419773;28;96761;-79
2023/12/07 11:32:23;;;;;;;6.13;3.22;;;;;;;10.46;100.00;100197.13;10418353;27;96617;-79
2023/12/07 11:38:06;;;;;;;5.72;3.22;;;;;;;10.49;100.00;100189.13;10418086;28;96749;-79
2023/12/07 11:43:18;;;;;;;4.93;3.35;;;;;;;10.58;99.96;100186.97;10417649;28;97181;-79
2023/12/07 11:48:24;;;;;;;5.95;3.95;;;;;;;10.66;99.77;100192.78;10424916;27;96597;-81
2023/12/07 11:53:31;;;;;;;6.20;3.50;;;;;;;10.69;99.19;100179.50;10459822;27;96670;-82
2023/12/07 11:58:35;;;;;;;4.68;3.03;;;;;;;10.67;100.00;100176.09;10459889;27;97003;-82
2023/12/07 12:03:44;;;;;;;5.22;3.45;;;;;;;10.83;99.52;100152.63;10418306;27;97333;-82
2023/12/07 12:08:50;;;;;;;6.17;3.10;;;;;;;10.92;99.53;100128.53;10417292;27;96676;-82
2023/12/07 12:13:54;;;;;;;4.60;2.95;;;;;;;10.90;100.00;100115.44;10419183;27;96825;-83
2023/12/07 12:18:58;;;;;;;4.72;3.10;;;;;;;11.41;99.54;100112.31;10452268;27;97084;-83
2023/12/07 12:24:05;;;;;;;5.55;3.22;;;;;;;11.35;100.00;100095.00;10417126;27;96765;-81
2023/12/07 12:29:11;;;;;;;5.28;3.00;;;;;;;11.27;100.00;100083.94;10415710;28;97086;-82
2023/12/07 12:34:30;;;;;;;4.47;3.17;;;;;;;11.39;100.00;100072.84;10415509;28;97156;-82
2023/12/07 12:39:37;;;;;;;5.78;3.13;;;;;;;11.53;100.00;100074.03;10416329;27;96764;-81
2023/12/07 12:44:41;;;;;;;6.10;3.55;;;;;;;11.82;100.00;100082.25;10416612;27;96747;-80
2023/12/07 12:49:44;;;;;;;4.40;2.70;;;;;;;11.95;100.00;100120.31;10451411;27;96763;-81
2023/12/07 12:54:49;;;;;;;5.22;3.25;;;;;;;11.85;100.00;100150.69;10434658;27;96686;-81
2023/12/07 12:59:56;;;;;;;3.83;1.38;;;;;;;13.07;100.00;100218.59;10415826;28;96670;-82
2023/12/07 13:05:02;;;;;;;1.55;0.80;;;;;;;13.60;100.00;100237.00;10415346;28;96728;-84
2023/12/07 13:10:11;;;;;;;0.75;0.40;;;;;;;13.79;100.00;100256.25;10416377;28;97057;-84
2023/12/07 13:15:22;;;;;;;0.47;0.20;;;;;;;13.91;100.00;100273.25;10415716;28;97128;-84
2023/12/07 13:20:27;;;;;;;0.45;0.30;;;;;;;13.94;100.00;100286.31;10415370;28;97326;-84
2023/12/07 13:25:38;;;;;;;0.70;0.43;;;;;;;14.09;100.00;100306.72;10413957;27;97045;-83
2023/12/07 13:30:43;;;;;;;0.22;0.20;;;;;;;14.17;100.00;100323.03;10415150;27;96815;-83
2023/12/07 13:35:47;;;;;;;0.50;0.32;;;;;;;14.21;100.00;100343.13;10414581;28;96752;-83
2023/12/07 13:40:54;;;;;;;1.13;0.35;;;;;;;14.33;100.00;100355.72;10414215;27;96911;-84
2023/12/07 13:46:00;;;;;;;0.28;0.20;;;;;;;14.38;100.00;100351.91;10414129;27;97493;-85
2023/12/07 13:51:05;;;;;;;0.25;0.10;;;;;;;14.35;99.41;100386.44;10414012;28;96907;-84
2023/12/07 13:56:17;;;;;;;0.68;0.30;;;;;;;14.43;100.00;100386.06;10414604;28;96648;-84
2023/12/07 14:01:22;;;;;;;1.63;0.30;;;;;;;14.46;100.00;100402.63;10414512;28;96786;-84
2023/12/07 14:06:27;;;;;;;0.47;0.37;;;;;;;14.55;100.00;100417.16;10412504;28;96767;-83
2023/12/07 14:11:39;;;;;;;0.43;0.25;;;;;;;14.50;99.63;100433.31;10413605;28;97005;-84
2023/12/07 14:16:44;;;;;;;0.63;0.30;;;;;;;14.54;100.00;100455.19;10412184;28;96796;-83
2023/12/07 14:22:10;;;;;;;0.80;0.35;;;;;;;14.51;100.00;100415.63;10413217;28;97629;-84
2023/12/07 14:27:16;;;;;;;0.68;0.43;;;;;;;14.55;99.24;100394.19;10413140;28;96749;-82
2023/12/07 14:32:21;;;;;;;1.80;0.50;;;;;;;14.44;99.49;100359.50;10412866;27;96706;-83
2023/12/07 14:37:24;;;;;;;0.80;0.60;;;;;;;14.40;99.70;100344.69;10412457;28;97128;-82
2023/12/07 14:42:44;;;;;;;1.52;1.15;;;;;;;14.38;100.00;100292.78;10426790;27;96764;-82
2023/12/07 14:47:49;;;;;;;1.42;0.80;;;;;;;14.08;100.00;100250.31;10454493;27;96610;-80
2023/12/07 14:52:55;;;;;;;2.05;1.48;;;;;;;14.16;100.00;100191.69;10438417;27;96729;-79
2023/12/07 14:58:06;;;;;;;2.35;1.65;;;;;;;13.96;100.00;100203.31;10412195;28;96826;-79
2023/12/07 15:03:11;;;;;;;0.63;0.57;;;;;;;14.10;100.00;100205.22;10411871;28;96724;-79
2023/12/07 15:08:16;;;;;;;1.33;0.95;;;;;;;14.05;100.00;100175.53;10410337;28;96891;-79
2023/12/07 15:13:23;;;;;;;1.17;1.00;;;;;;;14.03;99.57;100198.56;10411594;28;96722;-79
2023/12/07 15:18:30;;;;;;;1.23;0.80;;;;;;;14.12;99.37;100240.41;10412912;27;96635;-79
2023/12/07 15:23:34;;;;;;;0.40;0.32;;;;;;;14.15;99.58;100269.34;10411463;28;96669;-79
2023/12/07 15:28:41;;;;;;;;;;;;;;;14.07;99.58;100256.53;10411889;28;97175;-79
2023/12/07 15:33:55;;;;;;;1.05;0.60;;;;;;;13.97;99.71;100275.59;10410991;28;97068;-79
2023/12/07 15:39:00;;;;;;;1.13;0.50;;;;;;;13.92;100.00;100294.34;10413946;27;96780;-79
2023/12/07 15:44:09;;;;;;;0.52;0.40;;;;;;;13.92;100.00;100307.56;10436331;27;96782;-79
2023/12/07 15:49:20;;;;;;;0.35;0.35;;;;;;;13.93;100.00;100298.72;10411082;28;96560;-79
2023/12/07 15:54:24;;;;;;;;;;;;;;;13.92;100.00;100315.50;10411290;28;96776;-79
2023/12/07 15:59:43;;;;;;;1.50;0.80;;;;;;;13.91;100.00;100321.75;10409960;28;96825;-79
2023/12/07 16:04:47;;;;;;;1.05;0.80;;;;;;;13.88;100.00;100342.22;10415648;28;96676;-79
2023/12/07 16:09:54;;;;;;;1.88;1.23;;;;;;;13.91;100.00;100329.69;10417594;28;97072;-79
2023/12/07 16:15:00;;;;;;;1.33;1.00;;;;;;;13.91;100.00;100326.16;10417287;27;96658;-79
2023/12/07 16:20:10;;;;;;;1.17;0.80;;;;;;;13.89;100.00;100323.59;10416723;28;96822;-79
2023/12/07 16:25:15;;;;;;;1.85;0.95;;;;;;;13.89;100.00;100335.97;10417106;27;96827;-79
2023/12/07 16:30:26;;;;;;;1.38;0.90;;;;;;;13.88;100.00;100324.56;10417059;28;96807;-79
2023/12/07 16:35:36;;;;;;;1.77;0.93;;;;;;;13.87;100.00;100336.06;10417046;28;96973;-79
2023/12/07 16:40:48;;;;;;;1.40;0.90;;;;;;;13.79;100.00;100337.38;10451737;27;96607;-79
2023/12/07 16:45:53;;;;;;;3.75;1.80;;;;;;;13.82;100.00;100342.50;10458159;27;97009;-79
2023/12/07 16:50:56;;;;;;;2.65;2.00;;;;;;;13.79;100.00;100347.97;10449233;27;96859;-79
2023/12/07 16:55:59;;;;;;;2.70;1.95;;;;;;;13.78;100.00;100351.56;10416277;27;96943;-79
2023/12/07 17:01:07;;;;;;;2.80;1.67;;;;;;;13.77;100.00;100360.41;10415735;27;97500;-79
2023/12/07 17:06:11;;;;;;;3.08;2.03;;;;;;;13.80;100.00;100370.81;10414994;28;97262;-80
2023/12/07 17:11:16;;;;;;;3.40;1.52;;;;;;;13.68;100.00;100381.09;10415517;28;97386;-80
2023/12/07 17:16:21;;;;;;;2.25;1.50;;;;;;;13.74;100.00;100385.25;10414451;28;96766;-80
2023/12/07 17:21:27;;;;;;;2.55;1.33;;;;;;;13.79;100.00;100374.41;10415264;28;96725;-79
2023/12/07 17:26:32;;;;;;;2.13;1.38;;;;;;;13.76;100.00;100379.88;10415728;28;97111;-79
2023/12/07 17:31:46;;;;;;;1.65;1.30;;;;;;;13.87;100.00;100375.72;10414915;28;96699;-79
2023/12/07 17:37:09;;;;;;;2.20;1.40;;;;;;;13.93;100.00;100388.66;10436068;27;96795;-79
2023/12/07 17:42:13;;;;;;;9.38;5.43;;;;;;;13.90;99.83;100388.78;10445455;27;97495;-79
2023/12/07 17:47:23;;;;;;;29.80;16.75;;;;;;;13.91;100.00;100387.00;10413824;28;96700;-79
2023/12/07 17:52:31;;;;;;;3.67;2.58;;;;;;;13.92;100.00;100388.75;10413630;28;96902;-83
2023/12/07 17:57:38;;;;;;;3.47;1.55;;;;;;;13.89;100.00;100394.16;10413890;28;96842;-82
2023/12/07 18:02:47;;;;;;;2.85;1.90;;;;;;;13.86;100.00;100428.72;10413660;28;96711;-82
2023/12/07 18:07:51;;;;;;;2.30;1.48;;;;;;;13.89;100.00;100437.34;10413278;28;96804;-82
2023/12/07 18:13:00;;;;;;;3.30;1.70;;;;;;;13.83;100.00;100461.44;10413450;28;97149;-83
2023/12/07 18:18:09;;;;;;;1.85;1.20;;;;;;;13.86;100.00;100505.44;10420393;27;96902;-82
2023/12/07 18:23:13;;;;;;;3.28;1.65;;;;;;;13.77;100.00;100534.97;10413210;28;96809;-83
2023/12/07 18:28:18;;;;;;;3.75;1.30;;;;;;;13.65;100.00;100544.34;10413216;27;97269;-83
2023/12/07 18:33:25;;;;;;;5.50;1.30;;;;;;;13.59;100.00;100550.78;10411863;28;97468;-81
2023/12/07 18:38:31;;;;;;;1.92;0.90;;;;;;;13.53;100.00;100556.38;10409323;22;97879;-79
2023/12/07 18:43:39;;;;;;;3.83;1.45;;;;;;;13.48;100.00;100583.94;10383524;28;96797;-79
2023/12/07 18:48:44;;;;;;;7.55;1.52;;;;;;;13.44;100.00;100601.75;10370874;28;96873;-79
2023/12/07 18:53:47;;;;;;;8.70;1.40;;;;;;;13.43;100.00;100600.00;10398480;27;97271;-79
2023/12/07 18:58:52;;;;;;;8.02;1.38;;;;;;;13.39;100.00;100585.22;10370650;28;96750;-79
2023/12/07 19:04:00;;;;;;;2.25;1.02;;;;;;;13.42;100.00;100590.38;10370633;28;97308;-79
2023/12/07 19:09:06;;;;;;;7.25;1.55;;;;;;;13.48;100.00;100605.09;10420904;27;96849;-79
2023/12/07 19:14:10;;;;;;;5.43;1.38;;;;;;;13.58;100.00;100606.38;10453736;27;96623;-79
2023/12/07 19:19:29;;;;;;;5.20;1.42;;;;;;;13.56;100.00;100574.72;10453379;27;96748;-79
2023/12/07 19:24:34;;;;;;;11.38;1.70;;;;;;;13.54;100.00;100579.22;10451721;27;97343;-79
2023/12/07 19:29:43;;;;;;;5.07;1.23;;;;;;;13.49;99.85;100561.84;10438972;27;96867;-79
2023/12/07 19:34:49;;;;;;;2.70;1.20;;;;;;;13.43;100.00;100573.56;10369048;28;97070;-79
2023/12/07 19:39:53;;;;;;;6.05;1.80;;;;;;;13.36;100.00;100564.19;10375184;28;97107;-79
2023/12/07 19:45:03;;;;;;;5.82;1.67;;;;;;;13.32;100.00;100575.88;10418278;27;97599;-78
2023/12/07 19:50:09;;;;;;;3.17;1.33;;;;;;;13.36;100.00;100556.28;10418164;28;97299;-79
2023/12/07 19:55:16;;;;;;;5.05;1.45;;;;;;;13.27;100.00;100540.88;10418016;28;96770;-79
2023/12/07 20:00:20;;;;;;;6.35;2.03;;;;;;;13.27;100.00;100550.56;10419767;27;96848;-79
2023/12/07 20:05:27;;;;;;;4.55;2.03;;;;;;;13.35;100.00;100559.00;10417527;28;96811;-79
2023/12/07 20:10:31;;;;;;;5.80;2.05;;;;;;;13.31;100.00;100547.69;10418175;28;97403;-79
2023/12/07 20:15:35;;;;;;;6.80;1.77;;;;;;;13.31;100.00;100541.59;10416708;27;97641;-79
2023/12/07 20:20:43;;;;;;;3.73;1.90;;;;;;;13.29;100.00;100533.69;10417493;28;97533;-79
2023/12/07 20:25:48;;;;;;;5.35;2.05;;;;;;;13.34;100.00;100552.88;10416775;28;96694;-81
2023/12/07 20:30:53;;;;;;;8.88;2.90;;;;;;;13.31;100.00;100558.28;10417004;28;97164;-81
2023/12/07 20:36:01;;;;;;;4.03;2.20;;;;;;;13.26;100.00;100557.63;10416851;27;97416;-79
2023/12/07 20:41:05;;;;;;;16.30;2.03;;;;;;;13.27;100.00;100566.44;10416264;28;96822;-79
2023/12/07 20:46:09;;;;;;;6.67;1.67;;;;;;;13.24;100.00;100571.84;10416533;28;96757;-79
2023/12/07 20:51:19;;;;;;;5.25;2.10;;;;;;;13.24;100.00;100553.34;10415996;27;96653;-79
2023/12/07 20:56:23;;;;;;;4.93;2.42;;;;;;;13.25;100.00;100547.13;10416102;28;97034;-79
2023/12/07 21:01:34;;;;;;;7.68;2.20;;;;;;;13.28;100.00;100553.13;10415684;28;97618;-79
2023/12/07 21:06:38;;;;;;;11.10;2.28;;;;;;;13.21;100.00;100556.13;10415232;27;96796;-79
2023/12/07 21:11:42;;;;;;;;;;;;;;;13.20;100.00;100555.28;10415893;28;96789;-79
2023/12/07 21:16:48;;;;;;;4.80;2.42;;;;;;;13.23;100.00;100567.47;10434007;27;96922;-79
2023/12/07 21:21:53;;;;;;;5.78;2.78;;;;;;;13.19;100.00;100576.50;10456923;27;97383;-79
2023/12/07 21:26:56;;;;;;;7.25;3.35;;;;;;;13.17;100.00;100581.00;10416347;27;97585;-78
2023/12/07 21:32:01;;;;;;;8.48;3.35;;;;;;;13.09;100.00;100594.53;10414738;28;97047;-79
2023/12/07 21:37:10;;;;;;;5.13;2.85;;;;;;;12.99;100.00;100587.06;10414103;28;96928;-79
2023/12/07 21:42:13;;;;;;;4.70;2.95;;;;;;;13.01;100.00;100615.16;10441252;27;96906;-79
2023/12/07 21:47:17;;;;;;;5.38;3.22;;;;;;;12.96;100.00;100596.00;10456440;27;97425;-79
2023/12/07 21:52:23;;;;;;;8.05;3.20;;;;;;;13.03;100.00;100608.03;10456245;27;96813;-79
2023/12/07 21:57:30;;;;;;;;;;;;;;;13.01;100.00;100601.94;10453590;27;96765;-79
2023/12/07 22:02:34;;;;;;;10.98;2.75;;;;;;;12.95;100.00;100623.34;10455700;27;96628;-79
2023/12/07 22:07:39;;;;;;;6.57;2.67;;;;;;;12.92;100.00;100641.97;10455236;27;97558;-79
2023/12/07 22:12:44;;;;;;;5.35;2.60;;;;;;;12.96;100.00;100662.06;10455413;27;97220;-78
2023/12/07 22:17:47;;;;;;;10.35;3.55;;;;;;;12.92;100.00;100641.97;10415267;27;96944;-79
2023/12/07 22:22:55;;;;;;;7.25;2.63;;;;;;;12.87;100.00;100657.16;10412898;28;97410;-79
2023/12/07 22:27:59;;;;;;;6.32;2.45;;;;;;;12.90;100.00;100669.34;10413140;28;96837;-79
2023/12/07 22:33:02;;;;;;;10.95;2.53;;;;;;;13.07;100.00;100690.66;10414200;27;97231;-79
2023/12/07 22:38:24;;;;;;;41.10;4.10;;;;;;;12.96;100.00;100701.66;10412196;28;96914;-79
2023/12/07 22:43:28;;;;;;;19.15;2.83;;;;;;;12.77;100.00;100694.56;10413135;28;97073;-79
2023/12/07 22:48:31;;;;;;;6.68;2.30;;;;;;;12.81;100.00;100712.84;10412183;27;97094;-79
2023/12/07 22:53:40;;;;;;;7.00;2.25;;;;;;;12.87;100.00;100714.38;10412281;28;96702;-79
2023/12/07 22:58:46;;;;;;;8.10;1.95;;;;;;;12.94;100.00;100736.97;10412400;28;97255;-79
2023/12/07 23:03:51;;;;;;;7.43;2.00;;;;;;;13.04;100.00;100736.53;10412028;28;96852;-79
2023/12/07 23:09:01;;;;;;;6.82;2.50;;;;;;;13.15;100.00;100736.97;10412966;27;97086;-79
2023/12/07 23:14:05;;;;;;;12.40;2.40;;;;;;;13.18;100.00;100733.31;10416371;27;96624;-79
2023/12/07 23:19:14;;;;;;;8.27;2.17;;;;;;;13.15;100.00;100742.25;10418483;28;96754;-79
2023/12/07 23:24:19;;;;;;;9.50;2.40;;;;;;;13.21;100.00;100723.47;10446330;27;97484;-79
2023/12/07 23:29:22;;;;;;;7.57;2.10;;;;;;;13.22;100.00;100712.00;10438424;27;96817;-80